Saturday, November 01, 2014
11:56 UTC
  |  Log In   |  Register Free
Airport Search:

Ellington Airport
(KEFD)

FAA data valid effective September 18, 2014 - November 13, 2014 (unless otherwise noted).

 
 
 
 
 
 
 
 
 
 
 
 
 
 

Current Aviation Weather for Ellington Airport (KEFD)

The most recent METAR observation for KEFD was updated at: 1111
METAR Summary (Translated METAR)
KEFD
011050Z 03005KT 10SM CLR 12/07 A3034
KHOU
011053Z 03009KT 10SM CLR 12/07 A3033 RMK AO2 SLP276 T01170067
(6.7 nm NW from KEFD)
KLVJ
011053Z AUTO 06009KT 10SM CLR 12/07 A3034 RMK AO2 SLP273 T01170072
(6.8 nm SW from KEFD)
TAF Summary (Translated TAF)
KEFD
0104/0210 01009KT 9999 SKC QNH3021INS BECMG 0113/0114 05012KT 9999 FEW180 QNH3032INS BECMG 0120/0121 06006KT 9999 SKC QNH3029INS TX18/0104Z TN11/0111Z
KHOU
(6.7 nm NW from KEFD)
010856Z 0109/0206 03007KT P6SM SKC FM011600 08008KT P6SM SKC FM020200 08004KT P6SM SKC
  Airport Weather Conditions for KEFD

 Current Weather at EFD
54° F
Fair
Northeast winds at 5.8 mph
EFD NOAA Radar

Pressure: 30.34 in
Humidity: 72%
Wind: Northeast at 5.8 MPH (5 KT)
Dew Point: 44.6°F
Visibility: 10.00 mi


Airport Weather Forecast for KEFD

Translated METAR and TAF for KEFD
Translated METAR for KEFD (1152 UTC 01 November 2014)
found at http://aviationweather.gov/adds/metars/
 
METAR text: KEFD 011050Z 03005KT 10SM CLR 12/07 A3034
Conditions at: KEFD (HOUSTON/ELLINGTO, TX, US) observed 1050 UTC 01 November 2014
Temperature: 12.0°C (54°F)
Dewpoint: 7.0°C (45°F) [RH = 71%]
Pressure (altimeter): 30.34 inches Hg (1027.5 mb)
Winds: from the NNE (30 degrees) at 6 MPH (5 knots; 2.6 m/s)
Visibility: 10 or more miles (16+ km)
Ceiling: at least 12,000 feet AGL
Clouds: sky clear below 12,000 feet AGL
Weather: no significant weather observed at this time
Translated TAF for KEFD
Forecast for: KEFD (HOUSTON/ELLINGTO, TX, US)
TAF Text: TAF KEFD 0104/0210 01009KT 9999 SKC QNH3021INS
Forecast period: 0400 to 1300 UTC 01 November 2014
Forecast type: FROM: standard forecast or significant change
Winds: from the N (10 degrees) at 10 MPH (9 knots; 4.7 m/s)
Visibility: 6 or more miles (10+ km)
Clouds: clear skies
Weather: no significant weather forecast for this period
TAF Text: BECMG 0113/0114 05012KT 9999 FEW180 QNH3032INS
Forecast period: 1300 to 2000 UTC 01 November 2014
Forecast type: BECOMING: Conditions expected to become as follows by 1400 UTC 01 November 2014
Winds: from the NE (50 degrees) at 14 MPH (12 knots; 6.2 m/s)
Visibility: 6 or more miles (10+ km)
Clouds: few clouds at 18000 feet AGL
Weather: no significant weather forecast for this period
TAF Text: BECMG 0120/0121 06006KT 9999 SKC QNH3029INS TX18/0104Z TN11/0111Z
Forecast period: 2000 UTC 01 November 2014 to 1000 UTC 02 November 2014
Forecast type: BECOMING: Conditions expected to become as follows by 2100 UTC 01 November 2014
Winds: from the ENE (60 degrees) at 7 MPH (6 knots; 3.1 m/s)
Visibility: 6 or more miles (10+ km)
Clouds: clear skies
Weather: no significant weather forecast for this period

Find All Airport Services Find A Hotel Find A Rental Car Find A Golf Course Find A Restaurant $100 Hamburger



FBO's on the Field
FBO Company Facility Photos Services Transportation Aviation Fuel Prices: Prices include tax
Catering Weather Repair Courtesy Rental Type 100LL JetA JetA+ MOGAS 8087
 
Southwest Airport Services

This FBO has not yet been rated
FS:Texaco
Last Updated: Oct-16
Login to update fuel prices
SS:
Contact Southwest Airport ServicesMore FBO Information
 
Add another FBO Facility Photos Catering Weather Repair Courtesy Rental Type 100LL JetA JetA+ MOGAS 8087
Services Transportation Aviation Fuel Prices: Prices include tax


model-print
model-print
model-print
model-print